CYHZCYYR

Guest
Details From CYHZ - Halifax Intl
To CYYR - Goose Bay
Flight Number -
Tags Decoded
Created
Modified
Stats Distance 521 nm / 965 km
Max Altitude 0 ft / 0 m
Waypoints 2
Social Downloads 0
Likes 0
Share VATSIM

Download

Looking for another format? Having issues loading an existing format? Contact us
Advertisement - Login to hide

Notes

Decoded

Route

CYHZ CYYR

ID Type Via Altitude Latitude Longitude Leg Dist Tot Dist Heading (true) Name
O CYHZ APT - 0 ft / 0 m 44.89362˚ -63.51800˚ - 0 nm - -
O CYYR APT - 0 ft / 0 m 53.33389˚ -60.43639˚ 521 nm 521 nm 12° / 15° -

Altitude Profile

Advertisement - Login to hide

Weather


0- 5 10 15 20 25 30 35+ Temperature / ° C

Clouds and Precipitation
Forecast for 2017-12-16 18:00 UTC. Updated 2 hours ago

Ground ~20,000 ft ~40,000 ft Winds

CYHZ

Details ICAO CYHZ (YHZ)
Name HALIFAX INTL
Region Canada
Timezone America/Halifax (UTC-4.0)
Stats Elevation 477 ft / 145 m (AMSL)
Location 44.883158° -63.510554°
Runways 2
Magnetic Variation 17.419° W

METAR

CYHZ 161600Z 34016KT 8SM -SHSN SCT015 OVC045 M07/M09 A2958 RMK SC4SC4 CVCTV CLD EMBD SLP028

Decode

TAF

TAF TAF CYHZ 161439Z 1615/1712 35012G22KT 2SM -SHSN OVC015 TEMPO 1615/1618 6SM -SN SCT015 OVC025 PROB30 1615/1618 3/4SM -SHSN VV005 FM161800 33015KT 6SM -SN BKN020 OVC070 TEMPO 1618/1620 P6SM NSW SCT020 BKN070 FM162000 32012G22KT P6SM BKN025 BKN120 FM162300 31015G25KT P6SM BKN025 FM170600 31015G25KT P6SM BKN020 RMK NXT FCST BY 161800Z

Decode

Departure Runways

ID Width Length Bearing (true) Bearing (mag) Surface Threshold Offset Overrun Length
05 200 ft / 61 m 8,608 ft / 2,624 m 34.95° 52.37° Asphalt 0 ft / 0 m 0 ft / 0 m
14 200 ft / 61 m 7,571 ft / 2,308 m 125.19° 142.61° Asphalt 0 ft / 0 m 0 ft / 0 m
23 200 ft / 61 m 8,608 ft / 2,624 m 214.97° 232.39° Asphalt 0 ft / 0 m 0 ft / 0 m
32 200 ft / 61 m 7,571 ft / 2,308 m 305.21° 322.63° Asphalt 0 ft / 0 m 0 ft / 0 m

CYYR

Details ICAO CYYR (YYR)
Name Goose Bay
Region Canada
Timezone America/Goose_Bay (UTC-4.0)
Stats Elevation 160 ft / 49 m (AMSL)
Location 53.318820° -60.423890°
Runways 2
Magnetic Variation 20.962° W

METAR

CYYR 161600Z 25014G26KT 15SM FEW040 FEW250 M13/M20 A2939 RMK SC1CI1 SLP958

Decode

TAF

TAF CYYR 161130Z 1612/1712 26020G30KT P6SM FEW050 SCT180 BECMG 1618/1620 25015KT FM162000 25015KT P6SM BKN040 TEMPO 1620/1708 5SM -SHSN BKN020 BECMG 1701/1703 29012KT FM170800 30015KT P6SM SCT040 BKN090 RMK NXT FCST BY 161800Z

Decode

Destination Runways

ID Width Length Bearing (true) Bearing (mag) Surface Threshold Offset Overrun Length
08 209 ft / 64 m 11,055 ft / 3,369 m 54.70° 75.66° Asphalt 0 ft / 0 m 1,000 ft / 305 m
16 200 ft / 61 m 9,515 ft / 2,900 m 132.96° 153.92° Asphalt 0 ft / 0 m 0 ft / 0 m
26 209 ft / 64 m 11,055 ft / 3,369 m 234.73° 255.69° Asphalt 0 ft / 0 m 1,000 ft / 305 m
34 200 ft / 61 m 9,515 ft / 2,900 m 312.99° 333.95° Asphalt 0 ft / 0 m 500 ft / 152 m

Popular Alternatives